Time;durP1;ratioP1;P1;durP2;ratioP2;P2;SDS_P1;SDS_P2;PMS_P1;PMS_P2;Temp;Humidity;BMP_temperature;BMP_pressure;BME280_temperature;BME280_humidity;BME280_pressure;Samples;Min_cycle;Max_cycle;Signal;HPM_P1;HPM_P2
2021/11/17 02:27:28;;;;;;;4.32;3.65;;;;;;;14.17;nan;100896.00;5052795;28;20075;-38
2021/11/17 02:30:31;;;;;;;6.43;4.25;;;;;;;14.18;nan;100897.75;5052687;28;20078;-38
2021/11/17 02:33:09;;;;;;;4.65;3.97;;;;;;;14.17;nan;100900.50;5052819;28;20083;-38
2021/11/17 02:35:53;;;;;;;5.65;4.15;;;;;;;14.16;nan;100902.31;5052908;28;20032;-38
2021/11/17 02:38:37;;;;;;;4.85;3.85;;;;;;;14.17;nan;100903.19;5052305;28;20031;-38
2021/11/17 02:41:24;;;;;;;5.05;4.05;;;;;;;14.15;nan;100893.41;5052767;28;20017;-38
2021/11/17 02:44:26;;;;;;;5.22;4.13;;;;;;;14.15;nan;100904.09;5052331;28;20405;-39
2021/11/17 02:47:10;;;;;;;6.03;4.20;;;;;;;14.14;nan;100907.72;5000953;28;20111;-38
2021/11/17 02:50:07;;;;;;;5.95;4.10;;;;;;;14.14;nan;100913.06;5040511;28;20087;-38
2021/11/17 02:53:02;;;;;;;4.78;3.85;;;;;;;14.13;nan;100911.34;4971259;28;20049;-38
2021/11/17 02:55:42;;;;;;;6.18;4.35;;;;;;;14.15;nan;100911.25;4970578;28;20034;-38
2021/11/17 02:58:24;;;;;;;5.80;4.13;;;;;;;14.12;nan;100914.97;4971097;28;20031;-38
2021/11/17 03:01:12;;;;;;;7.05;4.75;;;;;;;14.13;nan;100915.84;4956448;28;20476;-38
2021/11/17 03:04:09;;;;;;;6.22;4.18;;;;;;;14.12;nan;100906.94;4955227;28;20121;-38
2021/11/17 03:07:09;;;;;;;5.63;3.65;;;;;;;14.11;nan;100909.69;4971050;28;20489;-39
2021/11/17 03:10:08;;;;;;;4.57;3.85;;;;;;;14.11;nan;100904.34;4971171;28;20126;-38
2021/11/17 03:12:37;;;;;;;4.50;3.72;;;;;;;14.10;nan;100908.81;4972173;28;20043;-38
2021/11/17 03:15:22;;;;;;;5.65;4.45;;;;;;;14.10;nan;100913.31;4970971;28;20114;-39
2021/11/17 03:18:10;;;;;;;4.60;3.78;;;;;;;14.10;nan;100916.00;4970839;28;20109;-38
2021/11/17 03:20:35;;;;;;;4.07;3.60;;;;;;;14.08;nan;100908.06;4971083;28;20050;-38
2021/11/17 03:23:09;;;;;;;8.18;4.40;;;;;;;14.07;nan;100898.28;4971123;28;20160;-38
2021/11/17 03:25:53;;;;;;;4.63;3.83;;;;;;;14.09;nan;100900.91;4970945;28;20115;-38
2021/11/17 03:28:54;;;;;;;5.38;3.70;;;;;;;14.07;nan;100892.94;4989857;28;20075;-38
2021/11/17 03:31:20;;;;;;;5.22;4.10;;;;;;;14.07;nan;100887.59;4970558;28;20105;-38
2021/11/17 03:34:00;;;;;;;6.35;4.28;;;;;;;14.07;nan;100894.75;4969194;28;20066;-38
2021/11/17 03:36:47;;;;;;;4.82;3.95;;;;;;;14.06;nan;100896.56;4970496;28;20043;-38
2021/11/17 03:39:15;;;;;;;;;;;;;;;14.05;nan;100897.53;4970356;28;20069;-38
2021/11/17 03:42:06;;;;;;;5.63;3.72;;;;;;;14.05;nan;100902.00;4970241;28;19917;-38
2021/11/17 03:45:09;;;;;;;5.00;3.63;;;;;;;14.04;nan;100894.91;4953719;28;20037;-38
2021/11/17 03:47:49;;;;;;;5.95;4.13;;;;;;;14.04;nan;100895.81;4969404;28;20035;-38
2021/11/17 03:50:38;;;;;;;4.95;3.50;;;;;;;14.04;nan;100898.47;4970423;28;20035;-38
2021/11/17 03:53:15;;;;;;;4.50;3.67;;;;;;;14.04;nan;100902.94;4970623;28;20034;-38
2021/11/17 03:56:11;;;;;;;5.53;3.92;;;;;;;14.00;nan;100896.88;4970397;28;20046;-38
2021/11/17 03:58:52;;;;;;;4.65;3.75;;;;;;;14.03;nan;100899.38;4957071;28;20047;-38
2021/11/17 04:01:26;;;;;;;5.35;3.80;;;;;;;14.03;nan;100893.19;4970469;28;20043;-38
2021/11/17 04:03:58;;;;;;;5.10;3.90;;;;;;;14.02;nan;100897.66;4970122;28;20384;-39
2021/11/17 04:06:32;;;;;;;4.55;3.83;;;;;;;14.02;nan;100894.13;4970432;28;20034;-38
2021/11/17 04:09:00;;;;;;;4.15;3.75;;;;;;;14.01;nan;100889.75;5042816;28;20095;-38
2021/11/17 04:11:32;;;;;;;5.10;4.18;;;;;;;13.99;nan;100895.16;5051154;28;20029;-39
2021/11/17 04:14:16;;;;;;;4.30;3.75;;;;;;;14.00;nan;100896.88;5051656;28;20493;-38
2021/11/17 04:17:03;;;;;;;5.45;3.75;;;;;;;13.99;nan;100896.97;5051097;28;20053;-38
2021/11/17 04:19:38;;;;;;;4.13;3.60;;;;;;;13.97;nan;100897.06;5051011;28;20497;-38
2021/11/17 04:22:22;;;;;;;5.30;3.65;;;;;;;13.99;nan;100899.63;5051094;28;20025;-38
2021/11/17 04:24:53;;;;;;;4.30;3.50;;;;;;;13.96;nan;100903.31;5055427;28;20021;-38
2021/11/17 04:27:22;;;;;;;4.40;3.70;;;;;;;13.97;nan;100891.72;5055322;28;20027;-38
2021/11/17 04:30:15;;;;;;;4.45;3.67;;;;;;;13.97;nan;100893.53;5054689;28;20029;-38
2021/11/17 04:33:02;;;;;;;4.78;3.63;;;;;;;13.97;nan;100898.88;5055275;28;20029;-39
2021/11/17 04:35:35;;;;;;;3.67;3.33;;;;;;;13.95;nan;100898.94;5055058;28;20027;-38
2021/11/17 04:38:28;;;;;;;4.65;3.58;;;;;;;13.95;nan;100901.59;5054731;28;20029;-38
2021/11/17 04:41:14;;;;;;;4.28;3.53;;;;;;;13.96;nan;100902.47;5054738;28;20050;-39
2021/11/17 04:44:12;;;;;;;4.80;3.63;;;;;;;13.95;nan;100912.28;5055163;28;20540;-40
2021/11/17 04:46:58;;;;;;;3.55;3.25;;;;;;;13.94;nan;100909.72;5054664;28;20035;-38
2021/11/17 04:49:24;;;;;;;;;;;;;;;13.93;nan;100902.59;5055143;28;20037;-38
2021/11/17 04:52:40;;;;;;;4.90;3.40;;;;;;;13.93;nan;100903.50;5054692;28;19912;-38
2021/11/17 04:55:31;;;;;;;5.28;3.63;;;;;;;13.93;nan;100903.50;4973497;28;20046;-38
2021/11/17 04:58:06;;;;;;;4.60;3.45;;;;;;;13.91;nan;100900.03;4973333;28;20034;-38
2021/11/17 05:00:50;;;;;;;4.72;3.30;;;;;;;13.90;nan;100899.16;4973525;28;20023;-38
2021/11/17 05:03:41;;;;;;;4.30;3.47;;;;;;;13.89;nan;100905.47;4973710;28;20031;-38
2021/11/17 05:06:31;;;;;;;5.20;3.80;;;;;;;13.91;nan;100900.03;4968770;28;20054;-38
2021/11/17 05:09:33;;;;;;;4.50;3.72;;;;;;;13.90;nan;100903.66;4973410;28;20058;-38
2021/11/17 05:12:15;;;;;;;5.05;3.35;;;;;;;13.89;nan;100902.78;4973195;28;20042;-38
2021/11/17 05:15:03;;;;;;;3.97;3.60;;;;;;;13.88;nan;100916.22;4972698;28;20043;-38
2021/11/17 05:18:02;;;;;;;4.43;3.33;;;;;;;13.90;nan;100914.34;4962232;28;20077;-38
2021/11/17 05:20:57;;;;;;;5.57;3.30;;;;;;;13.86;nan;100918.97;4973030;28;20237;-38
2021/11/17 05:23:36;;;;;;;4.35;3.42;;;;;;;13.87;nan;100907.34;4973801;28;20031;-38
2021/11/17 05:26:10;;;;;;;3.70;3.08;;;;;;;13.87;nan;100904.66;4973007;28;20027;-39
2021/11/17 05:29:00;;;;;;;4.82;3.78;;;;;;;13.87;nan;100917.16;4973161;28;20038;-39
2021/11/17 05:31:41;;;;;;;3.53;3.20;;;;;;;13.86;nan;100923.47;5032728;28;20056;-38
2021/11/17 05:34:21;;;;;;;4.30;3.20;;;;;;;13.85;nan;100922.59;5053292;28;20032;-38
2021/11/17 05:37:11;;;;;;;3.97;3.47;;;;;;;13.86;nan;100923.47;5053985;28;20213;-38
2021/11/17 05:39:51;;;;;;;4.25;3.22;;;;;;;13.84;nan;100915.50;5054060;28;20025;-38
2021/11/17 05:43:27;;;;;;;3.75;3.20;;;;;;;13.85;nan;100929.72;5053912;28;20025;-38
2021/11/17 05:46:14;;;;;;;3.45;3.00;;;;;;;13.85;nan;100932.41;4915227;29;20084;-38
2021/11/17 05:48:52;;;;;;;;;;;;;;;13.84;nan;100933.34;4915775;29;20127;-38
2021/11/17 05:51:39;;;;;;;4.88;3.42;;;;;;;13.84;nan;100938.69;4915213;29;19919;-38
2021/11/17 05:54:29;;;;;;;3.50;3.20;;;;;;;13.84;nan;100946.72;4915399;29;20035;-38
2021/11/17 05:57:06;;;;;;;4.40;3.17;;;;;;;13.81;nan;100944.19;4899317;29;20111;-40
2021/11/17 06:00:08;;;;;;;4.28;3.88;;;;;;;13.81;nan;100954.88;4915453;29;20465;-39
2021/11/17 06:02:41;;;;;;;4.28;3.25;;;;;;;13.82;nan;100948.59;4914894;29;20048;-40
2021/11/17 06:05:06;;;;;;;4.50;3.40;;;;;;;13.81;nan;100946.84;4914933;29;20509;-40
2021/11/17 06:07:31;;;;;;;3.42;3.13;;;;;;;13.81;nan;100946.84;4914874;29;20166;-40
2021/11/17 06:10:06;;;;;;;3.28;2.97;;;;;;;13.80;nan;100945.13;4915062;29;20040;-39
2021/11/17 06:12:32;;;;;;;5.72;3.67;;;;;;;13.79;nan;100954.09;4915259;29;20119;-40
2021/11/17 06:14:58;;;;;;;4.25;3.80;;;;;;;13.78;nan;100953.22;4916189;28;20677;-40
2021/11/17 06:17:27;;;;;;;3.42;2.97;;;;;;;13.77;nan;100948.81;4972005;28;20059;-40
2021/11/17 06:19:55;;;;;;;4.30;3.42;;;;;;;13.78;nan;100947.03;4972585;28;20031;-40
2021/11/17 06:22:24;;;;;;;3.85;3.25;;;;;;;13.78;nan;100960.38;5041918;28;20040;-40
2021/11/17 06:24:52;;;;;;;4.05;3.65;;;;;;;13.77;nan;100955.97;5053319;28;20393;-39
2021/11/17 06:27:22;;;;;;;3.25;2.95;;;;;;;13.77;nan;100961.31;5035320;28;20543;-39
2021/11/17 06:29:50;;;;;;;3.63;2.90;;;;;;;13.76;nan;100962.25;5035183;28;20116;-39
2021/11/17 06:32:17;;;;;;;4.15;3.15;;;;;;;13.75;nan;100957.84;5052743;28;20520;-39
2021/11/17 06:34:44;;;;;;;;;;;;;;;13.75;nan;100968.53;5053478;28;20031;-39
2021/11/17 06:37:12;;;;;;;4.32;3.10;;;;;;;13.75;nan;100968.53;5052787;28;19908;-39
2021/11/17 06:39:41;;;;;;;4.40;3.15;;;;;;;13.74;nan;100975.69;5052813;28;20021;-39
2021/11/17 06:42:10;;;;;;;3.70;3.25;;;;;;;13.75;nan;100979.22;5053308;28;20021;-40
2021/11/17 06:44:37;;;;;;;3.65;3.33;;;;;;;13.75;nan;100985.44;5052943;28;20045;-39
2021/11/17 06:47:02;;;;;;;3.15;2.83;;;;;;;13.74;nan;100982.84;5052232;28;20437;-39
2021/11/17 06:49:28;;;;;;;3.70;3.17;;;;;;;13.74;nan;100989.06;5034870;28;20097;-39
2021/11/17 06:51:54;;;;;;;3.85;3.00;;;;;;;13.73;nan;100981.09;5051756;28;20033;-39
2021/11/17 06:54:19;;;;;;;4.13;3.33;;;;;;;13.73;nan;100981.97;5052101;28;20115;-39
2021/11/17 06:56:45;;;;;;;4.18;3.35;;;;;;;13.73;nan;100986.44;5052138;28;20032;-40
2021/11/17 06:59:11;;;;;;;3.28;2.97;;;;;;;13.72;nan;100998.09;5052502;28;20064;-39
2021/11/17 07:01:36;;;;;;;5.07;3.35;;;;;;;13.70;nan;100998.16;5052732;28;20427;-39
2021/11/17 07:04:02;;;;;;;4.70;2.90;;;;;;;13.70;nan;101002.63;5052357;28;20024;-39
2021/11/17 07:06:28;;;;;;;3.80;3.22;;;;;;;13.71;nan;101004.38;5034060;28;20571;-39
2021/11/17 07:08:54;;;;;;;4.82;3.63;;;;;;;13.70;nan;101016.88;5052101;28;20025;-39
2021/11/17 07:11:20;;;;;;;3.83;3.40;;;;;;;13.69;nan;101020.47;5052215;28;20401;-39
2021/11/17 07:13:45;;;;;;;4.80;2.90;;;;;;;13.68;nan;101025.88;5051572;28;20085;-39
2021/11/17 07:16:11;;;;;;;4.95;3.35;;;;;;;13.67;nan;101034.84;5051866;28;20024;-39
2021/11/17 07:18:37;;;;;;;5.05;3.22;;;;;;;13.68;nan;101031.22;5051907;28;20592;-39
2021/11/17 07:21:05;;;;;;;3.97;3.22;;;;;;;13.68;nan;101037.44;5052107;28;20489;-39
2021/11/17 07:23:31;;;;;;;3.30;3.00;;;;;;;13.67;nan;101041.06;5051862;28;20067;-39
2021/11/17 07:25:57;;;;;;;3.55;2.90;;;;;;;13.67;nan;101041.06;5052156;28;20028;-39
2021/11/17 07:28:23;;;;;;;4.13;3.17;;;;;;;13.67;nan;101034.84;5051707;28;20021;-39
2021/11/17 07:30:48;;;;;;;5.78;3.65;;;;;;;13.65;nan;101037.56;5051913;28;20021;-40
2021/11/17 07:33:14;;;;;;;3.40;2.85;;;;;;;13.66;nan;101050.00;5033513;28;20478;-39
2021/11/17 07:35:43;;;;;;;3.88;3.47;;;;;;;13.65;nan;101057.13;5048978;28;20028;-39
2021/11/17 07:38:13;;;;;;;3.53;3.20;;;;;;;13.68;nan;101052.59;5051572;28;20040;-39
2021/11/17 07:40:41;;;;;;;5.65;3.78;;;;;;;13.68;nan;101060.63;5050620;28;20470;-39
2021/11/17 07:43:09;;;;;;;3.45;3.13;;;;;;;13.68;nan;101052.59;5046506;28;20397;-39
2021/11/17 07:45:37;;;;;;;4.47;3.63;;;;;;;13.68;nan;101060.63;5045935;28;20179;-39
2021/11/17 07:48:03;;;;;;;5.32;3.30;;;;;;;13.71;nan;101068.50;5050970;28;20056;-39
2021/11/17 07:50:30;;;;;;;6.70;3.70;;;;;;;13.73;nan;101069.28;5051455;28;20474;-39
2021/11/17 07:52:56;;;;;;;5.97;3.38;;;;;;;13.72;nan;101067.53;5050356;28;20468;-41
2021/11/17 07:55:22;;;;;;;4.72;3.25;;;;;;;13.74;nan;101074.56;5048461;28;20063;-40
2021/11/17 07:57:50;;;;;;;5.97;3.85;;;;;;;13.74;nan;101073.69;5047994;28;20150;-39
2021/11/17 08:00:19;;;;;;;5.03;3.42;;;;;;;13.78;nan;101080.63;5031167;28;20029;-40
2021/11/17 08:02:46;;;;;;;4.28;3.85;;;;;;;13.78;nan;101081.50;5049283;28;20141;-39
2021/11/17 08:05:12;;;;;;;6.10;4.10;;;;;;;13.80;nan;101079.59;5049016;28;20032;-39
2021/11/17 08:07:39;;;;;;;7.03;4.45;;;;;;;13.81;nan;101081.34;5049289;28;20079;-39
2021/11/17 08:10:08;;;;;;;5.43;4.28;;;;;;;13.83;nan;101079.44;5051114;28;20027;-39
2021/11/17 08:12:33;;;;;;;5.82;4.35;;;;;;;13.84;nan;101078.50;5049354;28;20107;-39
2021/11/17 08:14:59;;;;;;;9.15;6.20;;;;;;;13.86;nan;101081.97;5033849;28;20520;-39
2021/11/17 08:17:25;;;;;;;6.43;4.63;;;;;;;13.87;nan;101085.53;5047583;28;20076;-39
2021/11/17 08:19:50;;;;;;;12.93;7.85;;;;;;;13.88;nan;101088.09;5042346;28;20189;-40
2021/11/17 08:22:16;;;;;;;9.48;6.30;;;;;;;13.90;nan;101080.91;5039216;28;20370;-39
2021/11/17 08:24:44;;;;;;;8.73;5.93;;;;;;;13.90;nan;101088.06;5034139;28;20025;-39
2021/11/17 08:27:13;;;;;;;;;;;;;;;13.90;nan;101085.38;5040650;28;20021;-37
2021/11/17 08:29:39;;;;;;;6.45;4.65;;;;;;;13.90;nan;101090.72;5033159;28;20381;-40
2021/11/17 08:32:05;;;;;;;7.38;5.72;;;;;;;13.94;nan;101088.78;5039102;28;20116;-41
2021/11/17 08:34:31;;;;;;;4.23;3.63;;;;;;;13.94;nan;101092.31;5049470;28;20029;-37
2021/11/17 08:36:57;;;;;;;5.03;3.95;;;;;;;13.96;nan;101094.88;5048364;28;20264;-39
2021/11/17 08:39:24;;;;;;;8.07;4.13;;;;;;;13.96;nan;101090.41;5048626;28;20056;-41
2021/11/17 08:41:50;;;;;;;;;;;;;;;13.98;nan;101090.34;5040427;28;20025;-39
2021/11/17 08:44:15;;;;;;;6.40;3.63;;;;;;;14.02;nan;101084.78;5049037;28;19923;-40
2021/11/17 08:46:41;;;;;;;6.65;4.05;;;;;;;14.01;nan;101077.72;5049056;28;20095;-37
2021/11/17 08:49:07;;;;;;;5.18;3.47;;;;;;;14.03;nan;101091.84;5046578;28;20021;-39
2021/11/17 08:51:33;;;;;;;5.45;4.05;;;;;;;14.06;nan;101088.16;5047216;28;20029;-39
2021/11/17 08:54:01;;;;;;;4.38;3.55;;;;;;;14.05;nan;101095.31;5050695;28;20033;-39
2021/11/17 08:56:34;;;;;;;4.88;3.45;;;;;;;14.07;nan;101098.78;5050162;28;20401;-39
2021/11/17 08:59:01;;;;;;;4.80;3.60;;;;;;;14.08;nan;101105.88;5045074;28;20028;-38
2021/11/17 09:01:32;;;;;;;4.07;3.67;;;;;;;14.10;nan;101103.97;5050500;28;20091;-39
2021/11/17 09:04:06;;;;;;;4.03;3.63;;;;;;;14.12;nan;101104.78;5034573;28;20040;-38
2021/11/17 09:06:33;;;;;;;4.25;3.22;;;;;;;14.14;nan;101110.03;5046454;28;20013;-40
2021/11/17 09:09:04;;;;;;;5.35;3.42;;;;;;;14.14;nan;101104.69;5051636;28;20032;-38
2021/11/17 09:11:31;;;;;;;6.30;3.78;;;;;;;14.15;nan;101122.47;5054525;28;20033;-39
2021/11/17 09:13:57;;;;;;;6.15;3.47;;;;;;;14.15;nan;101127.81;5045785;28;20025;-37
2021/11/17 09:16:22;;;;;;;4.68;3.58;;;;;;;14.17;nan;101135.78;5059361;28;20039;-39
2021/11/17 09:18:50;;;;;;;4.43;3.42;;;;;;;14.17;nan;101142.00;5053517;28;20489;-40
2021/11/17 09:21:18;;;;;;;3.95;3.47;;;;;;;14.19;nan;101144.56;5051163;28;20025;-40
2021/11/17 09:23:43;;;;;;;;;;;;;;;14.18;nan;101138.38;5039550;28;20016;-38
2021/11/17 09:26:09;;;;;;;4.30;3.30;;;;;;;14.19;nan;101145.44;5037993;28;19966;-39
2021/11/17 09:28:35;;;;;;;3.95;3.42;;;;;;;14.21;nan;101142.72;5034001;28;20035;-40
2021/11/17 09:31:02;;;;;;;4.22;3.80;;;;;;;14.22;nan;101149.78;5038620;28;20040;-39
2021/11/17 09:33:28;;;;;;;4.15;3.30;;;;;;;14.23;nan;101147.06;5022438;28;20059;-38
2021/11/17 09:35:54;;;;;;;4.27;3.40;;;;;;;14.22;nan;101145.28;5047114;28;20037;-39
2021/11/17 09:38:20;;;;;;;5.07;3.37;;;;;;;14.24;nan;101142.56;5053472;28;20033;-38
2021/11/17 09:40:55;;;;;;;3.80;3.38;;;;;;;14.25;nan;101144.28;5053748;28;20422;-40
2021/11/17 09:43:29;;;;;;;3.75;3.22;;;;;;;14.26;nan;101146.00;5042013;28;20029;-40
2021/11/17 09:45:56;;;;;;;3.60;3.00;;;;;;;14.26;nan;101148.69;5047955;28;20691;-40
2021/11/17 09:48:26;;;;;;;3.72;3.15;;;;;;;14.28;nan;101157.53;5044517;28;20104;-40
2021/11/17 09:51:15;;;;;;;4.80;3.70;;;;;;;14.28;nan;101154.84;5053248;28;20490;-40
2021/11/17 09:53:49;;;;;;;3.83;3.10;;;;;;;14.28;nan;101149.50;5040734;28;20048;-39
2021/11/17 09:56:20;;;;;;;4.47;2.78;;;;;;;14.29;nan;101161.91;5052436;28;20176;-39
2021/11/17 09:59:08;;;;;;;3.55;2.92;;;;;;;14.30;nan;101164.50;5035635;28;20032;-38
2021/11/17 10:01:50;;;;;;;3.80;2.95;;;;;;;14.30;nan;101158.28;5053755;28;20025;-39
2021/11/17 10:04:24;;;;;;;4.43;3.10;;;;;;;14.31;nan;101160.91;5035221;28;20025;-39
2021/11/17 10:10:04;;;;;;;3.20;2.90;;;;;;;14.32;nan;101156.44;5053585;28;20082;-40
2021/11/17 10:15:22;;;;;;;3.53;2.85;;;;;;;14.33;nan;101164.38;5044156;28;20456;-39
2021/11/17 10:17:55;;;;;;;5.38;3.30;;;;;;;14.33;nan;101167.03;5052506;28;20048;-37
2021/11/17 10:20:37;;;;;;;4.00;2.95;;;;;;;14.34;nan;101175.91;5051833;28;20040;-37
2021/11/17 10:23:05;;;;;;;3.58;2.80;;;;;;;14.35;nan;101183.88;5038714;28;20029;-37
2021/11/17 10:25:53;;;;;;;3.78;2.80;;;;;;;14.36;nan;101174.06;5027510;28;20108;-37
2021/11/17 10:28:27;;;;;;;3.25;2.90;;;;;;;14.35;nan;101162.50;5034132;28;20025;-37
2021/11/17 10:31:14;;;;;;;3.60;2.70;;;;;;;14.35;nan;101159.81;5045744;28;20029;-37
2021/11/17 10:33:53;;;;;;;3.03;2.70;;;;;;;14.36;nan;101163.34;5041069;28;20047;-37
2021/11/17 10:36:25;;;;;;;3.45;2.50;;;;;;;14.35;nan;101154.47;5048991;28;20697;-37
2021/11/17 10:39:05;;;;;;;3.25;2.50;;;;;;;14.37;nan;101149.91;5053112;28;20035;-37
2021/11/17 10:41:32;;;;;;;3.70;2.80;;;;;;;14.37;nan;101143.69;5051245;28;20367;-38
2021/11/17 10:44:00;;;;;;;3.72;2.70;;;;;;;14.37;nan;101138.34;5047711;28;20029;-38
2021/11/17 10:46:45;;;;;;;4.47;2.80;;;;;;;14.37;nan;101138.34;5050529;28;20021;-37
2021/11/17 10:49:15;;;;;;;2.97;2.67;;;;;;;14.37;nan;101135.66;5052179;28;20041;-38
2021/11/17 10:52:03;;;;;;;3.83;2.83;;;;;;;14.36;nan;101134.81;5052172;28;20029;-37
2021/11/17 10:54:30;;;;;;;3.40;2.83;;;;;;;14.37;nan;101141.00;5027885;28;20017;-37
2021/11/17 10:57:08;;;;;;;4.25;3.00;;;;;;;14.37;nan;101135.66;5051778;28;20029;-37
2021/11/17 10:59:34;;;;;;;4.03;2.67;;;;;;;14.38;nan;101134.72;5051935;28;20029;-37
2021/11/17 11:02:01;;;;;;;4.50;2.80;;;;;;;14.38;nan;101140.06;5052128;28;20032;-37
2021/11/17 11:04:40;;;;;;;3.15;2.50;;;;;;;14.37;nan;101133.84;5046601;28;20037;-37
2021/11/17 11:07:13;;;;;;;4.18;2.60;;;;;;;14.38;nan;101126.69;5052110;28;20025;-37
2021/11/17 11:09:45;;;;;;;4.13;2.75;;;;;;;14.37;nan;101128.50;5051693;28;20393;-39
2021/11/17 11:12:16;;;;;;;4.40;3.08;;;;;;;14.39;nan;101131.13;5032181;28;20397;-38
2021/11/17 11:15:01;;;;;;;4.63;3.00;;;;;;;14.38;nan;101127.59;5046770;28;20028;-40
2021/11/17 11:17:43;;;;;;;3.08;2.75;;;;;;;14.39;nan;101120.41;5032404;28;20127;-38
2021/11/17 11:20:19;;;;;;;2.95;2.65;;;;;;;14.39;nan;101115.06;5038730;28;20084;-38
2021/11/17 11:23:06;;;;;;;4.07;2.67;;;;;;;14.39;nan;101112.41;5044677;28;20025;-37
2021/11/17 11:25:47;;;;;;;3.25;2.88;;;;;;;14.39;nan;101123.09;5046107;28;20028;-39
2021/11/17 11:28:22;;;;;;;3.13;2.60;;;;;;;14.39;nan;101121.28;5040578;28;20116;-37
2021/11/17 11:30:49;;;;;;;3.60;2.63;;;;;;;14.40;nan;101119.47;5031116;28;20052;-37
2021/11/17 11:33:39;;;;;;;3.00;2.70;;;;;;;14.40;nan;101116.78;5032945;28;20493;-37
2021/11/17 11:36:11;;;;;;;3.00;2.40;;;;;;;14.40;nan;101111.44;5014215;28;20068;-37
2021/11/17 11:38:43;;;;;;;3.13;2.50;;;;;;;14.40;nan;101106.09;5051351;28;20037;-37
2021/11/17 11:41:45;;;;;;;2.60;2.40;;;;;;;14.41;nan;101101.59;5051366;28;20112;-38
2021/11/17 11:44:17;;;;;;;2.90;2.60;;;;;;;14.41;nan;101105.16;5022248;28;20029;-37
2021/11/17 11:46:47;;;;;;;2.35;2.13;;;;;;;14.41;nan;101101.59;5051315;28;20025;-37
2021/11/17 11:49:41;;;;;;;3.15;2.40;;;;;;;14.42;nan;101111.34;5051582;28;20029;-39
2021/11/17 11:52:09;;;;;;;3.95;2.70;;;;;;;14.42;nan;101114.03;5051171;28;20478;-37
2021/11/17 11:54:56;;;;;;;3.30;2.80;;;;;;;14.42;nan;101106.00;5021975;28;20111;-37
2021/11/17 11:57:30;;;;;;;2.95;2.65;;;;;;;14.43;nan;101105.09;5024478;28;20445;-37
2021/11/17 12:00:01;;;;;;;3.13;2.50;;;;;;;14.43;nan;101099.75;5051857;28;20107;-37
2021/11/17 12:02:33;;;;;;;3.08;2.30;;;;;;;14.44;nan;101096.97;5033305;28;20028;-37
2021/11/17 12:05:12;;;;;;;3.08;2.53;;;;;;;14.44;nan;101093.44;5032314;28;20493;-38
2021/11/17 12:07:42;;;;;;;2.45;2.20;;;;;;;14.44;nan;101086.28;5033763;28;20037;-38
2021/11/17 12:10:46;;;;;;;3.75;2.40;;;;;;;14.45;nan;101082.66;5051417;28;20146;-39
2021/11/17 12:13:17;;;;;;;2.97;2.60;;;;;;;14.45;nan;101082.66;4962291;28;20034;-38
2021/11/17 12:15:57;;;;;;;3.60;2.65;;;;;;;14.46;nan;101079.06;4959760;28;20539;-39
2021/11/17 12:18:23;;;;;;;3.50;2.20;;;;;;;14.46;nan;101071.03;4969145;28;20444;-38
2021/11/17 12:21:05;;;;;;;3.45;2.35;;;;;;;14.47;nan;101069.22;4956607;28;20015;-37
2021/11/17 12:23:37;;;;;;;2.50;2.30;;;;;;;14.47;nan;101080.78;4966048;28;20121;-37
2021/11/17 12:26:12;;;;;;;2.90;2.33;;;;;;;14.48;nan;101071.81;4946637;29;20603;-37
2021/11/17 12:28:57;;;;;;;3.10;2.40;;;;;;;14.48;nan;101079.81;4950905;28;20571;-37
2021/11/17 12:31:26;;;;;;;4.05;2.63;;;;;;;14.50;nan;101074.41;4966546;28;20529;-37
2021/11/17 12:33:58;;;;;;;4.25;2.60;;;;;;;14.50;nan;101080.66;4961982;28;20039;-39
2021/11/17 12:36:56;;;;;;;3.10;2.45;;;;;;;14.50;nan;101080.66;4965895;28;20031;-37
2021/11/17 12:39:23;;;;;;;2.65;2.30;;;;;;;14.51;nan;101079.72;4963992;28;20045;-37
2021/11/17 12:41:54;;;;;;;2.65;2.35;;;;;;;14.51;nan;101077.03;4969891;28;20077;-39
2021/11/17 12:44:28;;;;;;;3.88;2.63;;;;;;;14.52;nan;101076.09;5009758;28;20421;-38
2021/11/17 12:47:07;;;;;;;3.55;2.53;;;;;;;14.53;nan;101069.78;5054018;28;20021;-37
2021/11/17 12:49:53;;;;;;;3.55;2.50;;;;;;;14.53;nan;101067.09;5054488;28;20116;-37
2021/11/17 12:52:34;;;;;;;2.93;2.40;;;;;;;14.53;nan;101060.91;5051218;28;20464;-37
2021/11/17 12:55:24;;;;;;;3.55;2.33;;;;;;;14.55;nan;101057.22;5050544;28;20078;-37
2021/11/17 12:57:55;;;;;;;3.22;2.80;;;;;;;14.55;nan;101061.69;5054449;28;20483;-38
2021/11/17 13:00:20;;;;;;;3.40;2.85;;;;;;;14.55;nan;101073.25;5053648;28;20028;-37
2021/11/17 13:02:46;;;;;;;3.10;2.40;;;;;;;14.56;nan;101069.63;5052446;28;20020;-38
2021/11/17 13:05:31;;;;;;;3.08;2.65;;;;;;;14.57;nan;101074.03;5050720;28;20028;-38
2021/11/17 13:08:09;;;;;;;2.70;2.33;;;;;;;14.59;nan;101084.66;5052221;28;20501;-38
2021/11/17 13:11:03;;;;;;;2.95;2.65;;;;;;;14.60;nan;101086.41;5051906;28;20037;-37
2021/11/17 13:13:44;;;;;;;4.05;2.60;;;;;;;14.61;nan;101077.41;5048892;28;20031;-38
2021/11/17 13:16:33;;;;;;;3.00;2.70;;;;;;;14.61;nan;101083.66;5050882;28;20029;-38
2021/11/17 13:19:01;;;;;;;2.35;2.05;;;;;;;14.61;nan;101080.97;5053082;28;20075;-40
2021/11/17 13:21:31;;;;;;;3.72;2.55;;;;;;;14.63;nan;101076.41;5053826;28;20397;-37
2021/11/17 13:23:57;;;;;;;2.78;2.40;;;;;;;14.63;nan;101075.53;5050331;28;20099;-38
2021/11/17 13:26:41;;;;;;;3.38;2.65;;;;;;;14.66;nan;101072.72;5053023;28;20036;-37
2021/11/17 13:29:51;;;;;;;2.80;2.40;;;;;;;14.66;nan;101074.53;5052308;28;20029;-37
2021/11/17 13:32:42;;;;;;;2.53;2.20;;;;;;;14.67;nan;101063.75;5043230;28;20048;-38
2021/11/17 13:35:33;;;;;;;3.15;2.50;;;;;;;14.68;nan;101061.91;5031377;28;20022;-37
2021/11/17 13:38:28;;;;;;;2.80;2.20;;;;;;;14.69;nan;101058.28;5034088;28;20029;-38
2021/11/17 13:40:57;;;;;;;2.95;2.70;;;;;;;14.70;nan;101054.69;4969738;28;20447;-39
2021/11/17 13:43:24;;;;;;;2.53;2.22;;;;;;;14.71;nan;101045.72;4965295;28;20034;-37
2021/11/17 13:45:50;;;;;;;;;;;;;;;14.72;nan;101055.47;4970369;28;20035;-38
2021/11/17 13:48:20;;;;;;;3.25;2.38;;;;;;;14.73;nan;101049.16;4970544;28;19910;-38
2021/11/17 13:50:48;;;;;;;3.05;2.28;;;;;;;14.72;nan;101048.28;4970381;28;20042;-38
2021/11/17 13:53:15;;;;;;;2.75;2.25;;;;;;;14.74;nan;101056.25;4965998;28;20027;-37
2021/11/17 13:55:49;;;;;;;3.20;2.50;;;;;;;14.74;nan;101056.25;4967288;28;20031;-39
2021/11/17 13:58:15;;;;;;;2.72;2.20;;;;;;;14.73;nan;101057.19;4970320;28;20711;-38
2021/11/17 14:00:42;;;;;;;3.35;2.70;;;;;;;14.75;nan;101056.16;4970208;28;20063;-37
2021/11/17 14:03:08;;;;;;;4.10;2.60;;;;;;;14.74;nan;101051.78;4967623;28;20039;-36
2021/11/17 14:05:39;;;;;;;3.17;2.67;;;;;;;14.75;nan;101047.28;4969960;28;20401;-37
2021/11/17 14:08:07;;;;;;;3.03;2.60;;;;;;;14.76;nan;101046.31;4972258;28;20046;-37
2021/11/17 14:10:33;;;;;;;3.17;2.30;;;;;;;14.76;nan;101049.00;4969924;28;20194;-37
2021/11/17 14:13:00;;;;;;;3.00;2.53;;;;;;;14.76;nan;101049.88;4968441;28;20073;-37
2021/11/17 14:15:27;;;;;;;3.10;2.45;;;;;;;14.77;nan;101040.06;4965865;28;20027;-37
2021/11/17 14:17:52;;;;;;;3.25;2.83;;;;;;;14.76;nan;101044.50;5031757;28;20049;-38
2021/11/17 14:20:20;;;;;;;3.20;2.90;;;;;;;14.78;nan;101047.13;5052919;28;20036;-37
2021/11/17 14:22:46;;;;;;;3.55;2.60;;;;;;;14.76;nan;101041.84;5050650;28;20024;-37
2021/11/17 14:25:17;;;;;;;5.93;3.83;;;;;;;14.79;nan;101046.19;5042664;28;20075;-40
2021/11/17 14:27:46;;;;;;;5.53;3.83;;;;;;;14.78;nan;101044.44;5051463;28;20090;-38
2021/11/17 14:30:26;;;;;;;4.85;3.25;;;;;;;14.79;nan;101048.84;5052817;28;20029;-39
2021/11/17 14:32:53;;;;;;;4.43;3.58;;;;;;;14.79;nan;101049.72;5049231;28;20025;-39
2021/11/17 14:35:20;;;;;;;3.22;2.75;;;;;;;14.80;nan;101051.44;5041603;28;20045;-40
2021/11/17 14:37:46;;;;;;;3.83;3.00;;;;;;;14.80;nan;101053.25;5032917;28;20678;-39
2021/11/17 14:40:14;;;;;;;3.17;2.88;;;;;;;14.80;nan;101050.56;5035984;28;20066;-39
2021/11/17 14:42:41;;;;;;;3.50;2.78;;;;;;;14.80;nan;101063.94;5037902;28;20021;-39
2021/11/17 14:45:09;;;;;;;3.00;2.70;;;;;;;14.79;nan;101065.78;5050372;28;20115;-38
2021/11/17 14:47:35;;;;;;;3.55;3.25;;;;;;;14.80;nan;101069.31;5039068;28;20040;-39
2021/11/17 14:50:00;;;;;;;2.88;2.58;;;;;;;14.80;nan;101071.97;5044228;28;20029;-39
2021/11/17 14:52:26;;;;;;;2.80;2.50;;;;;;;14.80;nan;101075.53;5051588;28;20031;-39
2021/11/17 14:54:51;;;;;;;3.25;2.83;;;;;;;14.80;nan;101074.66;5044694;28;20033;-39